Time;durP1;ratioP1;P1;durP2;ratioP2;P2;SDS_P1;SDS_P2;PMS_P1;PMS_P2;Temp;Humidity;BMP_temperature;BMP_pressure;BME280_temperature;BME280_humidity;BME280_pressure;Samples;Min_cycle;Max_cycle;Signal;HPM_P1;HPM_P2
2022/07/11 00:00:58;;;;;;;4.20;3.30;;;;;;;18.56;51.59;94661.41;4173676;28;20057;-55
2022/07/11 00:03:00;;;;;;;3.70;2.83;;;;;;;18.53;51.61;94645.94;4158113;28;20476;-53
2022/07/11 00:05:02;;;;;;;2.95;2.22;;;;;;;18.55;51.72;94657.16;4165060;28;20434;-52
2022/07/11 00:07:04;;;;;;;4.50;1.90;;;;;;;18.55;51.82;94657.16;4168281;28;20106;-53
2022/07/11 00:09:06;;;;;;;3.30;1.90;;;;;;;18.47;51.78;94646.75;4159720;28;20045;-53
2022/07/11 00:11:07;;;;;;;2.88;1.60;;;;;;;18.54;51.79;94660.81;4173593;28;20066;-52
2022/07/11 00:13:09;;;;;;;1.77;1.33;;;;;;;18.53;51.85;94659.19;4171945;28;20057;-53
2022/07/11 00:15:11;;;;;;;2.38;1.80;;;;;;;18.56;51.62;94656.09;4163483;28;20056;-52
2022/07/11 00:17:12;;;;;;;7.07;1.42;;;;;;;18.48;51.63;94656.38;4175711;28;20060;-55
2022/07/11 00:19:14;;;;;;;2.50;1.33;;;;;;;18.48;51.74;94656.38;4163897;28;20045;-53
2022/07/11 00:21:16;;;;;;;4.85;1.80;;;;;;;18.52;51.37;94660.19;4176055;28;20060;-53
2022/07/11 00:23:18;;;;;;;2.50;1.50;;;;;;;18.44;51.64;94661.25;4175038;28;20535;-51
2022/07/11 00:25:20;;;;;;;2.45;1.20;;;;;;;18.46;51.90;94655.75;4175922;28;20110;-53
2022/07/11 00:27:22;;;;;;;3.97;1.40;;;;;;;18.47;51.64;94658.19;4168558;28;20049;-53
2022/07/11 00:29:24;;;;;;;2.10;1.40;;;;;;;18.52;51.65;94660.19;4159566;28;20053;-53
2022/07/11 00:31:25;;;;;;;4.90;1.58;;;;;;;18.50;51.70;94664.91;4164360;28;20068;-52
2022/07/11 00:33:27;;;;;;;2.97;1.40;;;;;;;18.46;51.70;94671.66;4170096;28;20111;-53
2022/07/11 00:35:29;;;;;;;2.75;1.70;;;;;;;18.46;51.66;94669.03;4175171;28;20076;-49
2022/07/11 00:37:31;;;;;;;3.65;1.20;;;;;;;18.41;51.73;94667.81;4172037;28;20085;-52
2022/07/11 00:39:32;;;;;;;2.45;1.67;;;;;;;18.33;52.02;94672.50;4173835;28;20639;-50
2022/07/11 00:41:34;;;;;;;4.93;1.58;;;;;;;18.26;52.37;94669.84;4174681;28;20494;-50
2022/07/11 00:43:37;;;;;;;2.72;1.60;;;;;;;18.29;52.38;94674.75;4174269;28;20057;-52
2022/07/11 00:45:39;;;;;;;;;;;;;;;18.24;52.59;94674.56;4163753;28;20117;-55
2022/07/11 00:47:41;;;;;;;2.00;1.40;;;;;;;18.22;52.65;94676.63;4157668;28;19931;-53
2022/07/11 00:49:44;;;;;;;2.65;1.38;;;;;;;18.25;52.37;94672.72;4167880;28;20111;-52
2022/07/11 00:51:46;;;;;;;4.22;1.50;;;;;;;18.29;52.39;94666.00;4163550;28;20114;-53
2022/07/11 00:53:53;;;;;;;2.47;1.52;;;;;;;18.32;52.37;94669.03;4170975;28;20090;-51
2022/07/11 00:55:55;;;;;;;2.17;1.15;;;;;;;18.28;52.51;94670.47;4175386;28;20048;-52
2022/07/11 00:57:57;;;;;;;3.42;1.42;;;;;;;18.31;52.49;94672.72;4159159;28;20536;-52
2022/07/11 00:59:59;;;;;;;5.13;1.60;;;;;;;18.29;52.79;94677.41;4158736;28;20045;-51
2022/07/11 01:02:01;;;;;;;2.47;1.60;;;;;;;18.29;52.71;94677.41;4165901;28;20091;-55
2022/07/11 01:04:03;;;;;;;6.47;1.42;;;;;;;18.30;52.72;94671.06;4174176;28;20052;-54
2022/07/11 01:06:05;;;;;;;2.38;1.42;;;;;;;18.31;52.73;94678.03;4166435;28;20061;-53
2022/07/11 01:08:07;;;;;;;2.60;1.30;;;;;;;18.30;52.65;94676.38;4172920;28;20084;-53
2022/07/11 01:10:09;;;;;;;2.05;1.30;;;;;;;18.16;52.56;94672.13;4164369;28;20066;-52
2022/07/11 01:12:10;;;;;;;2.47;1.40;;;;;;;18.10;52.91;94670.31;4178958;28;20455;-53
2022/07/11 01:14:12;;;;;;;3.72;1.70;;;;;;;18.06;52.90;94667.25;4168807;28;20057;-54
2022/07/11 01:16:21;;;;;;;2.13;1.40;;;;;;;18.08;52.73;94664.41;4175076;28;20045;-54
2022/07/11 01:18:23;;;;;;;2.65;1.52;;;;;;;18.03;53.04;94657.06;4177048;28;20247;-50
2022/07/11 01:20:25;;;;;;;3.47;1.40;;;;;;;18.09;52.63;94660.72;4173804;28;20349;-52
2022/07/11 01:22:28;;;;;;;2.33;1.30;;;;;;;18.14;52.53;94671.53;4169721;28;20053;-54
2022/07/11 01:24:30;;;;;;;2.42;1.45;;;;;;;18.11;52.40;94670.09;4178874;28;20067;-53
2022/07/11 01:26:32;;;;;;;3.03;1.65;;;;;;;18.15;52.52;94670.50;4178178;28;20125;-51
2022/07/11 01:28:34;;;;;;;3.70;1.23;;;;;;;18.15;51.97;94670.50;4161450;28;20202;-50
2022/07/11 01:30:36;;;;;;;1.95;1.35;;;;;;;18.15;52.38;94675.78;4162453;28;20103;-51
2022/07/11 01:32:37;;;;;;;2.65;1.58;;;;;;;18.12;52.43;94677.03;4160956;28;20093;-51
2022/07/11 01:34:39;;;;;;;2.53;1.40;;;;;;;18.14;52.28;94669.69;4178867;28;20049;-51
2022/07/11 01:36:42;;;;;;;2.25;1.50;;;;;;;18.13;52.13;94673.38;4178455;28;20041;-54
2022/07/11 01:38:44;;;;;;;2.03;1.50;;;;;;;18.12;52.33;94661.13;4177898;28;20057;-52
2022/07/11 01:40:46;;;;;;;3.10;1.55;;;;;;;18.09;52.33;94666.00;4170985;28;20355;-53
2022/07/11 01:42:47;;;;;;;2.67;1.50;;;;;;;18.03;52.53;94662.38;4175029;28;20508;-55
2022/07/11 01:44:49;;;;;;;2.40;1.42;;;;;;;18.05;52.53;94664.78;4174481;28;20113;-51
2022/07/11 01:46:51;;;;;;;3.13;1.50;;;;;;;17.99;52.48;94664.59;4162063;28;20049;-52
2022/07/11 01:48:53;;;;;;;2.38;1.42;;;;;;;17.95;52.44;94660.72;4160025;28;20496;-50
2022/07/11 01:50:55;;;;;;;3.85;1.60;;;;;;;17.91;52.56;94664.81;4160836;28;20045;-51
2022/07/11 01:52:56;;;;;;;9.48;1.50;;;;;;;17.95;52.52;94667.88;4165829;28;20044;-53
2022/07/11 01:54:58;;;;;;;1.80;1.27;;;;;;;17.96;52.56;94666.84;4171267;28;20053;-56
2022/07/11 01:57:00;;;;;;;1.88;1.27;;;;;;;17.97;52.45;94668.47;4161619;28;20648;-57
2022/07/11 01:59:01;;;;;;;2.00;1.38;;;;;;;17.94;52.40;94663.56;4172942;28;20110;-57
2022/07/11 02:01:04;;;;;;;4.70;1.45;;;;;;;17.85;52.56;94665.63;4176337;28;20041;-57
2022/07/11 02:03:06;;;;;;;2.88;1.40;;;;;;;17.78;52.58;94676.19;4160410;28;20116;-57
2022/07/11 02:05:08;;;;;;;1.83;1.27;;;;;;;17.80;52.73;94668.06;4167230;28;20102;-58
2022/07/11 02:07:11;;;;;;;2.83;1.50;;;;;;;17.84;52.75;94671.97;4169615;28;20053;-58
2022/07/11 02:09:12;;;;;;;3.53;1.35;;;;;;;17.87;52.39;94674.19;4172256;28;20052;-57
2022/07/11 02:11:14;;;;;;;2.83;1.63;;;;;;;17.86;52.31;94674.41;4164101;28;20064;-57
2022/07/11 02:13:18;;;;;;;2.47;1.30;;;;;;;17.77;52.49;94679.06;4160131;28;20115;-57
2022/07/11 02:15:20;;;;;;;2.10;1.40;;;;;;;17.65;52.75;94670.91;4161246;28;20401;-57
2022/07/11 02:17:22;;;;;;;3.35;1.50;;;;;;;17.65;52.78;94683.34;4169100;28;20048;-57
2022/07/11 02:19:24;;;;;;;2.25;1.38;;;;;;;17.65;53.17;94680.69;4165692;28;20132;-57
2022/07/11 02:21:25;;;;;;;3.35;1.60;;;;;;;17.61;52.99;94689.03;4161447;28;20053;-56
2022/07/11 02:23:28;;;;;;;6.63;1.38;;;;;;;17.61;53.11;94690.88;4160186;28;20068;-55
2022/07/11 02:25:30;;;;;;;2.93;1.27;;;;;;;17.54;53.48;94690.88;4161679;28;20053;-55
2022/07/11 02:27:32;;;;;;;3.28;1.60;;;;;;;17.49;53.57;94695.16;4160617;28;20709;-55
2022/07/11 02:29:33;;;;;;;3.25;1.75;;;;;;;17.49;53.42;94698.59;4161128;28;20099;-54
2022/07/11 02:31:35;;;;;;;1.50;1.23;;;;;;;17.52;53.28;94703.50;4161269;28;20057;-56
2022/07/11 02:33:37;;;;;;;1.88;1.42;;;;;;;17.50;53.44;94699.41;4158769;28;20111;-56
2022/07/11 02:35:39;;;;;;;1.70;1.40;;;;;;;17.52;53.35;94702.69;4160335;28;20449;-57
2022/07/11 02:37:41;;;;;;;4.95;1.40;;;;;;;17.55;53.36;94699.63;4161370;28;20393;-57
2022/07/11 02:39:43;;;;;;;1.95;1.15;;;;;;;17.50;53.45;94702.88;4170759;28;20131;-56
2022/07/11 02:41:45;;;;;;;2.00;1.53;;;;;;;17.48;53.67;94704.91;4165448;28;20050;-58
2022/07/11 02:43:47;;;;;;;2.45;1.35;;;;;;;17.43;53.58;94704.72;4159978;28;20057;-54
2022/07/11 02:45:48;;;;;;;2.17;1.20;;;;;;;17.41;53.83;94706.75;4166110;28;20112;-52
2022/07/11 02:47:50;;;;;;;2.72;1.48;;;;;;;17.39;54.01;94706.13;4158965;28;20081;-53
2022/07/11 02:49:52;;;;;;;2.67;1.50;;;;;;;17.35;53.81;94710.19;4162718;28;20107;-54
2022/07/11 02:51:54;;;;;;;2.72;1.30;;;;;;;17.34;53.94;94704.09;4177439;28;20052;-53
2022/07/11 02:53:55;;;;;;;5.32;1.42;;;;;;;17.26;54.09;94698.16;4168422;28;20119;-53
2022/07/11 02:55:57;;;;;;;2.72;1.50;;;;;;;17.13;54.49;94701.59;4160822;28;20119;-52
2022/07/11 02:57:59;;;;;;;3.83;1.27;;;;;;;17.14;54.19;94711.97;4160151;28;20137;-53
2022/07/11 03:00:02;;;;;;;7.82;1.52;;;;;;;17.06;54.54;94709.50;4173612;28;20053;-50
2022/07/11 03:02:04;;;;;;;2.28;1.40;;;;;;;16.88;55.01;94706.59;4160374;28;20099;-53
2022/07/11 03:04:09;;;;;;;1.70;1.27;;;;;;;17.02;54.83;94702.16;4166800;28;20194;-54
2022/07/11 03:06:11;;;;;;;3.15;1.38;;;;;;;17.02;54.78;94708.28;4164635;28;20132;-53
2022/07/11 03:08:12;;;;;;;4.80;1.80;;;;;;;17.09;54.68;94713.59;4173545;28;20041;-52
2022/07/11 03:10:14;;;;;;;2.65;1.30;;;;;;;17.11;54.30;94711.56;4159451;28;20049;-50
2022/07/11 03:12:16;;;;;;;3.63;1.60;;;;;;;16.96;54.62;94704.56;4165670;28;20301;-53
2022/07/11 03:14:18;;;;;;;2.03;1.33;;;;;;;17.02;54.40;94710.91;4168438;28;20046;-56
2022/07/11 03:16:20;;;;;;;2.45;1.50;;;;;;;16.99;54.20;94720.06;4160507;28;20571;-53
2022/07/11 03:18:22;;;;;;;7.30;1.83;;;;;;;17.06;54.12;94714.81;4158432;28;20055;-52
2022/07/11 03:20:23;;;;;;;3.05;1.40;;;;;;;16.99;54.31;94730.66;4175406;28;20045;-50
2022/07/11 03:22:25;;;;;;;2.40;1.50;;;;;;;16.96;54.36;94730.22;4172269;28;20045;-52
2022/07/11 03:24:27;;;;;;;2.30;1.25;;;;;;;17.02;54.05;94724.16;4159264;28;20058;-52
2022/07/11 03:26:28;;;;;;;2.33;1.60;;;;;;;17.11;53.88;94732.72;4170680;28;20485;-53
2022/07/11 03:28:30;;;;;;;3.33;1.30;;;;;;;17.11;53.44;94728.25;4162725;28;20461;-50
2022/07/11 03:30:32;;;;;;;3.00;1.58;;;;;;;17.16;53.59;94723.19;4170834;28;20042;-51
2022/07/11 03:32:33;;;;;;;5.65;1.40;;;;;;;17.14;53.71;94724.38;4175632;28;20056;-52
2022/07/11 03:34:36;;;;;;;2.20;1.38;;;;;;;17.20;53.68;94726.22;4175850;28;20057;-52
2022/07/11 03:36:37;;;;;;;2.88;1.63;;;;;;;17.23;53.41;94725.00;4167499;28;20049;-50
2022/07/11 03:38:39;;;;;;;3.67;1.40;;;;;;;17.21;53.76;94722.59;4159726;28;20122;-51
2022/07/11 03:40:41;;;;;;;7.30;1.70;;;;;;;17.17;53.83;94734.59;4174629;28;20122;-54
2022/07/11 03:42:43;;;;;;;2.22;1.52;;;;;;;17.18;53.83;94738.84;4175716;28;20115;-50
2022/07/11 03:44:45;;;;;;;2.20;1.30;;;;;;;17.21;54.01;94738.47;4171497;28;20416;-53
2022/07/11 03:46:47;;;;;;;3.67;1.50;;;;;;;17.26;54.03;94741.31;4159443;28;20539;-54
2022/07/11 03:48:49;;;;;;;4.45;1.63;;;;;;;17.31;53.79;94730.13;4159200;28;20050;-52
2022/07/11 03:50:51;;;;;;;3.50;1.50;;;;;;;17.35;53.87;94744.59;4159113;28;20100;-50
2022/07/11 03:52:53;;;;;;;3.47;1.92;;;;;;;17.45;53.51;94734.47;4173395;28;20048;-52
2022/07/11 03:54:54;;;;;;;3.22;1.80;;;;;;;17.51;53.66;94746.06;4159566;28;20498;-53
2022/07/11 03:56:56;;;;;;;3.58;1.80;;;;;;;17.52;53.70;94753.00;4162133;28;20523;-52
2022/07/11 03:58:58;;;;;;;4.00;1.80;;;;;;;17.54;53.75;94749.13;4159494;28;20111;-51
2022/07/11 04:01:00;;;;;;;5.35;2.15;;;;;;;17.56;53.64;94746.28;4159578;28;20122;-51
2022/07/11 04:03:01;;;;;;;3.20;1.60;;;;;;;17.58;53.95;94750.38;4158614;28;20211;-53
2022/07/11 04:05:04;;;;;;;3.72;1.80;;;;;;;17.61;53.85;94755.25;4172274;28;20478;-51
2022/07/11 04:07:05;;;;;;;2.40;1.60;;;;;;;17.64;53.90;94755.88;4164501;28;20041;-50
2022/07/11 04:09:07;;;;;;;3.45;1.77;;;;;;;17.66;53.82;94761.78;4175845;28;20057;-50
2022/07/11 04:11:10;;;;;;;3.33;1.48;;;;;;;17.62;54.21;94766.69;4175732;28;20527;-53
2022/07/11 04:13:11;;;;;;;4.15;1.60;;;;;;;17.59;54.09;94762.59;4163332;28;20057;-48
2022/07/11 04:15:13;;;;;;;3.40;1.60;;;;;;;17.69;54.15;94761.41;4173110;28;20061;-49
2022/07/11 04:17:15;;;;;;;3.67;1.70;;;;;;;17.58;54.56;94766.25;4163151;28;20136;-53
2022/07/11 04:19:16;;;;;;;4.95;1.90;;;;;;;17.66;54.70;94757.31;4168250;28;20045;-53
2022/07/11 04:21:18;;;;;;;4.65;2.00;;;;;;;17.65;54.62;94768.13;4168810;28;20119;-52
2022/07/11 04:23:20;;;;;;;3.72;1.48;;;;;;;17.57;54.44;94767.28;4163495;28;20069;-52
2022/07/11 04:25:22;;;;;;;7.00;1.80;;;;;;;17.73;54.37;94770.56;4159876;28;20053;-52
2022/07/11 04:27:26;;;;;;;3.17;1.77;;;;;;;17.64;54.68;94780.53;4175083;28;20126;-51
2022/07/11 04:29:31;;;;;;;2.92;1.90;;;;;;;17.64;54.63;94769.94;4168767;28;20417;-51
2022/07/11 04:31:33;;;;;;;2.88;1.90;;;;;;;17.60;54.81;94771.38;4171675;28;20512;-50
2022/07/11 04:33:35;;;;;;;5.28;1.77;;;;;;;17.70;54.71;94774.44;4174549;28;20064;-55
2022/07/11 04:35:36;;;;;;;5.57;1.58;;;;;;;17.66;54.85;94757.31;4161325;28;20053;-54
2022/07/11 04:37:38;;;;;;;5.00;1.80;;;;;;;17.75;54.85;94769.34;4171376;28;20041;-53
2022/07/11 04:39:40;;;;;;;5.45;1.83;;;;;;;17.74;55.01;94766.91;4165699;28;20530;-53
2022/07/11 04:41:42;;;;;;;3.47;2.00;;;;;;;17.74;54.80;94770.34;4164082;28;20053;-52
2022/07/11 04:43:44;;;;;;;3.75;1.77;;;;;;;17.89;54.42;94767.56;4172337;28;20049;-50
2022/07/11 04:45:46;;;;;;;3.28;1.90;;;;;;;18.02;54.36;94774.69;4164483;28;20516;-51
2022/07/11 04:47:48;;;;;;;3.95;1.80;;;;;;;18.07;54.10;94769.63;4171399;28;20465;-53
2022/07/11 04:49:51;;;;;;;2.83;1.80;;;;;;;18.08;54.12;94775.72;4159186;28;20473;-50
2022/07/11 04:51:53;;;;;;;3.72;1.70;;;;;;;18.05;54.10;94771.66;4164533;28;20174;-53
2022/07/11 04:53:59;;;;;;;2.13;1.60;;;;;;;18.01;54.17;94773.88;4173674;28;20136;-52
2022/07/11 04:56:01;;;;;;;2.45;1.60;;;;;;;18.14;53.98;94766.97;4164825;28;20103;-51
2022/07/11 04:58:03;;;;;;;2.50;1.73;;;;;;;18.25;53.95;94779.59;4158159;28;20061;-53
2022/07/11 05:00:06;;;;;;;3.45;1.67;;;;;;;18.27;53.82;94769.63;4160945;28;20064;-53
2022/07/11 05:02:08;;;;;;;1.95;1.60;;;;;;;18.30;53.64;94773.69;4176322;28;20053;-53
2022/07/11 05:04:11;;;;;;;2.65;1.70;;;;;;;18.23;53.96;94778.19;4165556;28;20080;-53
2022/07/11 05:06:13;;;;;;;2.28;1.77;;;;;;;18.20;54.22;94784.72;4159074;28;20057;-52
2022/07/11 05:08:15;;;;;;;2.85;1.67;;;;;;;18.28;54.44;94787.13;4172236;28;20478;-52
2022/07/11 05:10:17;;;;;;;3.33;1.95;;;;;;;18.27;54.64;94782.06;4163879;28;20057;-52
2022/07/11 05:12:20;;;;;;;5.55;1.90;;;;;;;18.38;54.46;94784.09;4164568;28;20175;-53
2022/07/11 05:14:21;;;;;;;3.40;1.98;;;;;;;18.46;54.09;94791.03;4166832;28;20057;-51
2022/07/11 05:16:23;;;;;;;3.08;1.65;;;;;;;18.39;53.86;94801.63;4169482;28;20069;-54
2022/07/11 05:18:25;;;;;;;3.63;1.80;;;;;;;18.39;54.36;94794.50;4163838;28;20092;-54
2022/07/11 05:20:27;;;;;;;3.33;1.60;;;;;;;18.31;54.01;94802.66;4158030;28;20072;-54
2022/07/11 05:22:29;;;;;;;2.75;1.92;;;;;;;18.09;54.29;94796.75;4159046;28;20453;-53
2022/07/11 05:24:30;;;;;;;3.35;1.75;;;;;;;18.22;54.13;94830.41;4165988;28;20115;-53
2022/07/11 05:26:32;;;;;;;3.25;1.98;;;;;;;18.20;54.12;94801.44;4175451;28;20487;-52
2022/07/11 05:28:34;;;;;;;3.33;2.08;;;;;;;18.19;54.63;94806.94;4161546;28;20091;-53
2022/07/11 05:30:35;;;;;;;4.57;1.63;;;;;;;18.38;53.94;94784.09;4161226;28;20118;-51
2022/07/11 05:32:37;;;;;;;3.17;2.33;;;;;;;18.45;53.91;94798.16;4161895;28;20056;-53
2022/07/11 05:34:40;;;;;;;2.75;1.90;;;;;;;18.58;53.69;94792.00;4167920;28;20061;-52
2022/07/11 05:36:43;;;;;;;2.72;2.08;;;;;;;18.65;53.17;94794.66;4160818;28;20045;-53
2022/07/11 05:38:45;;;;;;;4.90;2.00;;;;;;;18.70;52.82;94806.28;4158806;28;20487;-52
2022/07/11 05:40:47;;;;;;;4.85;1.63;;;;;;;18.78;52.09;94807.97;4158583;28;20453;-52
2022/07/11 05:42:49;;;;;;;2.92;1.63;;;;;;;18.85;49.80;94810.59;4157935;28;20441;-55
2022/07/11 05:44:51;;;;;;;4.78;1.73;;;;;;;18.65;49.42;94806.13;4164046;28;20081;-50
2022/07/11 05:46:52;;;;;;;2.97;1.33;;;;;;;18.49;48.71;94815.28;4158158;28;20041;-53
2022/07/11 05:48:54;;;;;;;2.03;1.08;;;;;;;18.42;48.32;94814.50;4157938;28;20049;-53
2022/07/11 05:50:57;;;;;;;12.20;1.60;;;;;;;18.15;48.96;94803.06;4158493;28;20171;-53
2022/07/11 05:52:59;;;;;;;2.50;1.25;;;;;;;18.20;48.30;94800.63;4174832;28;20107;-51
2022/07/11 05:55:01;;;;;;;4.35;1.20;;;;;;;18.23;46.11;94800.19;4161805;28;20049;-57
2022/07/11 05:57:03;;;;;;;2.40;1.25;;;;;;;18.32;45.11;94817.53;4166977;28;20049;-51
2022/07/11 05:59:04;;;;;;;7.80;1.30;;;;;;;18.05;43.84;94818.53;4169860;28;20061;-50
2022/07/11 06:01:06;;;;;;;2.80;1.33;;;;;;;18.03;43.39;94810.00;4164761;28;20210;-52
2022/07/11 06:03:08;;;;;;;4.78;1.13;;;;;;;18.06;43.15;94814.88;4162682;28;20056;-52
2022/07/11 06:05:11;;;;;;;4.13;1.20;;;;;;;18.02;43.25;94809.16;4161393;28;20107;-53
2022/07/11 06:08:40;;;;;;;3.75;1.08;;;;;;;18.25;43.34;94813.28;4161796;28;20122;-51
2022/07/11 06:09:35;;;;;;;3.53;1.20;;;;;;;18.45;43.25;94821.22;4171323;28;20057;-50
2022/07/11 06:11:36;;;;;;;2.97;1.40;;;;;;;18.00;43.73;94811.19;4164601;28;20128;-50
2022/07/11 06:13:43;;;;;;;2.92;1.58;;;;;;;17.94;44.04;94838.50;4160359;28;20506;-54
2022/07/11 06:15:47;;;;;;;3.38;1.20;;;;;;;17.77;44.82;94812.38;4167121;28;20049;-57
2022/07/11 06:17:48;;;;;;;2.45;1.42;;;;;;;17.93;44.78;94805.88;4168212;28;20110;-53
2022/07/11 06:19:50;;;;;;;5.63;1.60;;;;;;;18.16;44.27;94808.16;4160709;28;20438;-54
2022/07/11 06:21:52;;;;;;;4.70;1.42;;;;;;;18.12;44.36;94830.78;4161520;28;20120;-54
2022/07/11 06:23:54;;;;;;;6.38;1.88;;;;;;;18.21;43.52;94811.00;4164240;28;20476;-55
2022/07/11 06:25:57;;;;;;;3.75;1.50;;;;;;;18.38;42.58;94822.03;4171636;28;20060;-52
2022/07/11 06:28:00;;;;;;;2.95;1.38;;;;;;;18.45;42.16;94829.16;4161436;28;20049;-56
2022/07/11 06:30:03;;;;;;;2.92;1.10;;;;;;;18.30;42.00;94838.13;4161045;28;20468;-50
2022/07/11 06:32:05;;;;;;;2.20;0.98;;;;;;;18.49;41.63;94827.75;4160343;28;20148;-50
2022/07/11 06:34:06;;;;;;;3.13;1.80;;;;;;;18.51;42.03;94823.06;4163183;28;20111;-55
2022/07/11 06:36:09;;;;;;;3.97;1.50;;;;;;;18.31;42.58;94817.75;4172118;28;20301;-53
2022/07/11 06:38:14;;;;;;;6.30;1.63;;;;;;;18.33;42.67;94823.69;4160949;28;20049;-52
2022/07/11 06:40:17;;;;;;;3.97;1.50;;;;;;;18.33;41.25;94816.53;4172488;28;20119;-51
2022/07/11 06:42:19;;;;;;;7.03;1.70;;;;;;;18.32;41.73;94816.72;4163205;28;20053;-57
2022/07/11 06:44:25;;;;;;;3.30;1.50;;;;;;;18.41;41.62;94828.75;4176969;28;20211;-50
2022/07/11 06:46:29;;;;;;;2.22;1.40;;;;;;;18.48;41.37;94826.13;4163288;28;20057;-53
2022/07/11 06:48:30;;;;;;;4.80;2.03;;;;;;;18.51;41.88;94818.56;4171162;28;20103;-53
2022/07/11 06:50:33;;;;;;;2.53;1.23;;;;;;;18.48;40.24;94823.47;4161864;28;20077;-53
2022/07/11 06:52:34;;;;;;;5.68;1.48;;;;;;;18.49;41.28;94820.59;4171478;28;20041;-53
2022/07/11 06:54:36;;;;;;;3.30;1.15;;;;;;;18.48;41.12;94812.88;4163923;28;20355;-54
2022/07/11 06:56:38;;;;;;;2.63;1.02;;;;;;;18.53;41.49;94805.91;4161782;28;20054;-54
2022/07/11 06:58:40;;;;;;;2.88;1.60;;;;;;;18.66;41.45;94813.03;4161022;28;20167;-53
2022/07/11 07:00:42;;;;;;;6.03;1.90;;;;;;;18.75;40.13;94806.47;4167967;28;20051;-53
2022/07/11 07:02:45;;;;;;;5.80;1.47;;;;;;;18.48;40.09;94802.25;4164691;28;20311;-51
2022/07/11 07:04:46;;;;;;;3.25;1.30;;;;;;;18.32;39.91;94793.66;4159973;28;20836;-53
2022/07/11 07:06:48;;;;;;;6.05;1.30;;;;;;;18.43;39.97;94800.19;4160622;28;20049;-51
2022/07/11 07:08:50;;;;;;;3.75;1.58;;;;;;;18.52;39.37;94801.63;4160125;28;20099;-55
2022/07/11 07:10:52;;;;;;;3.78;1.73;;;;;;;18.73;39.70;94800.56;4160729;28;20053;-52
2022/07/11 07:12:54;;;;;;;1.42;1.10;;;;;;;18.78;39.35;94808.78;4160309;28;20057;-50
2022/07/11 07:14:56;;;;;;;4.72;1.40;;;;;;;18.86;39.56;94802.41;4160794;28;20115;-52
2022/07/11 07:16:57;;;;;;;6.35;1.52;;;;;;;18.88;40.12;94795.06;4175391;28;20053;-54
2022/07/11 07:18:59;;;;;;;4.78;1.52;;;;;;;18.98;40.50;94797.28;4175668;28;20059;-51
2022/07/11 07:21:01;;;;;;;5.22;1.20;;;;;;;18.93;41.30;94797.06;4176895;28;20049;-51
2022/07/11 07:23:03;;;;;;;6.93;1.52;;;;;;;18.90;41.72;94802.81;4176286;28;20049;-54
2022/07/11 07:25:06;;;;;;;3.58;1.90;;;;;;;18.82;41.96;94803.84;4164076;28;20060;-51
2022/07/11 07:27:08;;;;;;;5.43;1.67;;;;;;;18.66;42.91;94805.06;4173597;28;20156;-51
2022/07/11 07:29:10;;;;;;;2.17;1.17;;;;;;;18.65;43.11;94794.66;4160184;28;20045;-51
2022/07/11 07:31:12;;;;;;;9.77;3.53;;;;;;;18.48;43.40;94797.75;4169334;28;20049;-50
2022/07/11 07:33:17;;;;;;;6.45;2.30;;;;;;;18.33;44.20;94811.22;4165567;28;20120;-51
2022/07/11 07:35:39;;;;;;;4.28;1.23;;;;;;;18.61;43.63;94803.03;4159241;28;20058;-52
2022/07/11 07:37:41;;;;;;;7.97;2.17;;;;;;;18.71;43.27;94802.59;4164729;28;20332;-52
2022/07/11 07:39:42;;;;;;;4.95;1.92;;;;;;;18.63;43.56;94793.03;4176141;28;20053;-54
2022/07/11 07:41:44;;;;;;;5.15;2.25;;;;;;;18.51;43.63;94805.28;4176883;28;20264;-49
2022/07/11 07:43:48;;;;;;;4.03;1.35;;;;;;;18.24;43.94;94791.25;4175783;28;20404;-50
2022/07/11 07:45:50;;;;;;;8.07;1.42;;;;;;;18.05;44.04;94802.63;4165486;28;20176;-49
2022/07/11 07:47:52;;;;;;;4.88;1.55;;;;;;;18.15;44.37;94811.00;4158134;28;20049;-54
2022/07/11 07:49:53;;;;;;;7.38;2.30;;;;;;;18.28;43.95;94797.75;4167277;28;20053;-54
2022/07/11 07:51:55;;;;;;;4.50;2.17;;;;;;;18.19;43.60;94789.19;4164580;28;20090;-52
2022/07/11 07:53:57;;;;;;;5.18;1.67;;;;;;;18.20;43.38;94809.38;4169472;28;20057;-52
2022/07/11 07:55:58;;;;;;;6.43;3.67;;;;;;;18.00;43.46;94805.88;4159794;28;20109;-51
2022/07/11 07:58:00;;;;;;;4.20;2.65;;;;;;;17.99;44.51;94789.19;4160939;28;20061;-52
2022/07/11 08:02:24;;;;;;;4.93;1.48;;;;;;;18.49;43.70;94814.47;4159183;28;20173;-53
2022/07/11 08:04:25;;;;;;;4.60;0.95;;;;;;;18.51;43.63;94809.78;4161151;28;20456;-53
2022/07/11 08:06:27;;;;;;;2.80;1.10;;;;;;;18.51;43.11;94821.22;4160943;28;20466;-54
2022/07/11 08:08:29;;;;;;;3.80;2.05;;;;;;;18.59;43.21;94830.81;4162398;28;20332;-54
2022/07/11 08:10:31;;;;;;;5.22;1.60;;;;;;;18.52;43.23;94806.94;4162560;28;20517;-54
2022/07/11 08:12:33;;;;;;;3.92;1.50;;;;;;;18.65;42.81;94795.50;4168523;28;20275;-55
2022/07/11 08:14:34;;;;;;;2.75;1.45;;;;;;;18.73;42.68;94827.09;4161223;28;20056;-51
2022/07/11 08:16:36;;;;;;;2.92;1.60;;;;;;;18.54;43.03;94827.94;4159613;28;20085;-54
2022/07/11 08:18:38;;;;;;;3.17;1.42;;;;;;;18.41;42.94;94842.84;4159565;28;20057;-53
2022/07/11 08:20:40;;;;;;;4.03;2.28;;;;;;;18.35;42.20;94821.63;4162498;28;20049;-50
2022/07/11 08:22:42;;;;;;;4.88;1.90;;;;;;;18.10;42.44;94816.91;4168926;28;20107;-55
2022/07/11 08:24:44;;;;;;;2.60;1.60;;;;;;;18.21;42.52;94812.84;4159103;28;20061;-56
2022/07/11 08:26:46;;;;;;;2.70;1.40;;;;;;;18.21;41.92;94807.53;4160759;28;20053;-55
2022/07/11 08:28:47;;;;;;;5.32;1.83;;;;;;;18.49;42.41;94803.88;4161603;28;20053;-55
2022/07/11 08:30:49;;;;;;;4.40;1.60;;;;;;;18.55;42.06;94809.16;4159208;28;20046;-54
2022/07/11 08:32:51;;;;;;;9.40;1.73;;;;;;;18.89;41.18;94809.16;4162252;28;20048;-55
2022/07/11 08:34:53;;;;;;;5.43;1.90;;;;;;;19.02;41.04;94814.44;4173679;28;20049;-55
2022/07/11 08:36:55;;;;;;;3.53;1.30;;;;;;;18.96;40.39;94818.72;4163875;28;20293;-54
2022/07/11 08:38:58;;;;;;;6.30;1.58;;;;;;;18.85;40.66;94816.72;4160248;28;20053;-54
2022/07/11 08:40:59;;;;;;;5.00;1.60;;;;;;;18.33;41.77;94842.25;4162721;28;20060;-54
2022/07/11 08:43:22;;;;;;;3.30;1.42;;;;;;;18.11;41.14;94815.91;4157148;28;20055;-54
2022/07/11 08:45:31;;;;;;;2.88;1.38;;;;;;;18.36;40.91;94821.41;4169684;28;20590;-54
2022/07/11 08:47:33;;;;;;;5.25;1.58;;;;;;;18.66;41.07;94814.88;4162733;28;20482;-57
2022/07/11 08:49:35;;;;;;;3.05;1.15;;;;;;;18.52;40.57;94809.59;4172698;28;20056;-55
2022/07/11 08:51:37;;;;;;;1.83;1.10;;;;;;;18.67;40.90;94798.75;4158768;28;20065;-53
2022/07/11 08:53:44;;;;;;;2.55;1.25;;;;;;;18.75;40.62;94803.00;4159191;28;20049;-54
2022/07/11 08:55:47;;;;;;;4.20;1.25;;;;;;;19.08;40.25;94808.28;4159345;28;20144;-57
2022/07/11 08:57:49;;;;;;;4.63;1.50;;;;;;;19.02;39.04;94819.75;4170111;28;20061;-55
2022/07/11 08:59:55;;;;;;;3.38;0.88;;;;;;;18.31;39.79;94810.63;4175035;28;20102;-56
2022/07/11 09:01:58;;;;;;;1.77;0.90;;;;;;;18.61;39.52;94813.66;4170359;28;20108;-57
2022/07/11 09:04:01;;;;;;;2.53;1.10;;;;;;;18.47;40.03;94827.13;4156745;28;20046;-54
2022/07/11 09:06:03;;;;;;;2.60;1.23;;;;;;;18.79;39.84;94809.56;4159420;28;20068;-54
2022/07/11 09:08:04;;;;;;;4.50;1.30;;;;;;;18.59;40.12;94817.53;4159170;28;20061;-56
2022/07/11 09:10:07;;;;;;;1.85;1.05;;;;;;;18.78;40.45;94816.72;4159184;28;20133;-56
2022/07/11 09:12:12;;;;;;;4.53;1.10;;;;;;;18.69;40.44;94830.38;4158570;28;20099;-55
2022/07/11 09:14:25;;;;;;;5.35;1.05;;;;;;;19.10;40.88;94822.19;4157650;28;20465;-57
2022/07/11 09:16:31;;;;;;;3.90;1.08;;;;;;;18.72;39.39;94827.31;4169952;28;20510;-54
2022/07/11 09:18:34;;;;;;;;;;;;;;;18.63;39.74;94822.22;4173004;28;20604;-54
2022/07/11 09:25:43;;;;;;;3.20;1.10;;;;;;;18.71;39.85;94833.63;4158834;28;20148;-56
2022/07/11 09:27:45;;;;;;;3.60;1.00;;;;;;;18.83;39.25;94829.38;4149908;28;20460;-54
2022/07/11 09:29:48;;;;;;;3.05;1.30;;;;;;;18.59;39.47;94860.00;4169218;28;20056;-57
2022/07/11 09:31:50;;;;;;;3.05;1.17;;;;;;;18.63;39.79;94822.22;4164254;28;20580;-55
2022/07/11 09:34:11;;;;;;;4.55;1.10;;;;;;;18.83;39.89;94832.84;4160343;28;20485;-55
2022/07/11 09:36:13;;;;;;;3.05;0.98;;;;;;;18.72;39.26;94829.97;4178193;28;20049;-55
2022/07/11 09:38:16;;;;;;;5.43;1.13;;;;;;;18.50;39.64;94859.38;4169946;28;20076;-54
2022/07/11 09:40:19;;;;;;;2.85;1.30;;;;;;;18.79;39.88;94817.53;4173750;28;20524;-55
2022/07/11 09:42:21;;;;;;;3.50;1.10;;;;;;;19.14;39.39;94812.75;4173688;28;20057;-56
2022/07/11 09:44:24;;;;;;;2.95;1.60;;;;;;;19.47;38.88;94830.41;4177559;28;20075;-57